<?xml version="1.0" encoding="UTF-8" standalone="no" ?>
<gpx xmlns="http://www.topografix.com/GPX/1/1" xmlns:xsi="http://www.w3.org/2001/XMLSchema-instance" xsi:schemaLocation="http://www.topografix.com/GPX/1/1 http://www.topografix.com/GPX/1/1/gpx.xsd" version="1.1" creator="VisuGPX - https://www.visugpx.com">
  <metadata>
    <name>10296884-Rocher de dentillon Pelussin</name>
  </metadata>
  <trk>
    <name><![CDATA[10296884-Rocher de dentillon Pelussin]]></name>
    <trkseg>
      <trkpt lat="45.41867" lon="4.67601">
        <ele>453</ele>
        <time>2019-08-13T07:21:45Z</time>
      </trkpt>
      <trkpt lat="45.41843" lon="4.6766">
        <ele>451</ele>
        <time>2019-08-13T07:22:49Z</time>
      </trkpt>
      <trkpt lat="45.41821" lon="4.67626">
        <ele>455</ele>
        <time>2019-08-13T07:23:32Z</time>
      </trkpt>
      <trkpt lat="45.41774" lon="4.6763">
        <ele>458</ele>
        <time>2019-08-13T07:24:35Z</time>
      </trkpt>
      <trkpt lat="45.41759" lon="4.67607">
        <ele>461</ele>
        <time>2019-08-13T07:25:04Z</time>
      </trkpt>
      <trkpt lat="45.41744" lon="4.676">
        <ele>461</ele>
        <time>2019-08-13T07:25:25Z</time>
      </trkpt>
      <trkpt lat="45.41745" lon="4.67544">
        <ele>465</ele>
        <time>2019-08-13T07:26:18Z</time>
      </trkpt>
      <trkpt lat="45.41742" lon="4.6748">
        <ele>469</ele>
        <time>2019-08-13T07:27:18Z</time>
      </trkpt>
      <trkpt lat="45.41756" lon="4.67391">
        <ele>476</ele>
        <time>2019-08-13T07:28:43Z</time>
      </trkpt>
      <trkpt lat="45.41784" lon="4.67292">
        <ele>484</ele>
        <time>2019-08-13T07:30:23Z</time>
      </trkpt>
      <trkpt lat="45.41802" lon="4.6724">
        <ele>488</ele>
        <time>2019-08-13T07:31:18Z</time>
      </trkpt>
      <trkpt lat="45.41815" lon="4.67212">
        <ele>490</ele>
        <time>2019-08-13T07:31:49Z</time>
      </trkpt>
      <trkpt lat="45.41813" lon="4.67151">
        <ele>496</ele>
        <time>2019-08-13T07:32:46Z</time>
      </trkpt>
      <trkpt lat="45.41801" lon="4.67113">
        <ele>500</ele>
        <time>2019-08-13T07:33:25Z</time>
      </trkpt>
      <trkpt lat="45.41788" lon="4.67096">
        <ele>500</ele>
        <time>2019-08-13T07:33:49Z</time>
      </trkpt>
      <trkpt lat="45.41799" lon="4.66963">
        <ele>506</ele>
        <time>2019-08-13T07:35:54Z</time>
      </trkpt>
      <trkpt lat="45.41719" lon="4.6693">
        <ele>493</ele>
        <time>2019-08-13T07:37:46Z</time>
      </trkpt>
      <trkpt lat="45.41699" lon="4.66909">
        <ele>490</ele>
        <time>2019-08-13T07:38:19Z</time>
      </trkpt>
      <trkpt lat="45.41703" lon="4.6686">
        <ele>492</ele>
        <time>2019-08-13T07:39:05Z</time>
      </trkpt>
      <trkpt lat="45.41706" lon="4.6686">
        <ele>493</ele>
        <time>2019-08-13T07:39:09Z</time>
      </trkpt>
      <trkpt lat="45.417" lon="4.66809">
        <ele>493</ele>
        <time>2019-08-13T07:39:57Z</time>
      </trkpt>
      <trkpt lat="45.41683" lon="4.66707">
        <ele>490</ele>
        <time>2019-08-13T07:41:36Z</time>
      </trkpt>
      <trkpt lat="45.41673" lon="4.66669">
        <ele>486</ele>
        <time>2019-08-13T07:42:14Z</time>
      </trkpt>
      <trkpt lat="45.41657" lon="4.66637">
        <ele>481</ele>
        <time>2019-08-13T07:42:50Z</time>
      </trkpt>
      <trkpt lat="45.41662" lon="4.66596">
        <ele>478</ele>
        <time>2019-08-13T07:43:29Z</time>
      </trkpt>
      <trkpt lat="45.41677" lon="4.66556">
        <ele>479</ele>
        <time>2019-08-13T07:44:12Z</time>
      </trkpt>
      <trkpt lat="45.41678" lon="4.66537">
        <ele>479</ele>
        <time>2019-08-13T07:44:30Z</time>
      </trkpt>
      <trkpt lat="45.4167" lon="4.66513">
        <ele>477</ele>
        <time>2019-08-13T07:44:55Z</time>
      </trkpt>
      <trkpt lat="45.41653" lon="4.66493">
        <ele>477</ele>
        <time>2019-08-13T07:45:24Z</time>
      </trkpt>
      <trkpt lat="45.41639" lon="4.66491">
        <ele>477</ele>
        <time>2019-08-13T07:45:43Z</time>
      </trkpt>
      <trkpt lat="45.41619" lon="4.66499">
        <ele>477</ele>
        <time>2019-08-13T07:46:11Z</time>
      </trkpt>
      <trkpt lat="45.41595" lon="4.6652">
        <ele>476</ele>
        <time>2019-08-13T07:46:48Z</time>
      </trkpt>
      <trkpt lat="45.41578" lon="4.66557">
        <ele>475</ele>
        <time>2019-08-13T07:47:30Z</time>
      </trkpt>
      <trkpt lat="45.41553" lon="4.66628">
        <ele>476</ele>
        <time>2019-08-13T07:48:44Z</time>
      </trkpt>
      <trkpt lat="45.41538" lon="4.66659">
        <ele>477</ele>
        <time>2019-08-13T07:49:19Z</time>
      </trkpt>
      <trkpt lat="45.41521" lon="4.66707">
        <ele>475</ele>
        <time>2019-08-13T07:50:10Z</time>
      </trkpt>
      <trkpt lat="45.41517" lon="4.66738">
        <ele>472</ele>
        <time>2019-08-13T07:50:39Z</time>
      </trkpt>
      <trkpt lat="45.41519" lon="4.66793">
        <ele>468</ele>
        <time>2019-08-13T07:51:31Z</time>
      </trkpt>
      <trkpt lat="45.41512" lon="4.66824">
        <ele>465</ele>
        <time>2019-08-13T07:52:01Z</time>
      </trkpt>
      <trkpt lat="45.41506" lon="4.66833">
        <ele>464</ele>
        <time>2019-08-13T07:52:13Z</time>
      </trkpt>
      <trkpt lat="45.41497" lon="4.66835">
        <ele>464</ele>
        <time>2019-08-13T07:52:25Z</time>
      </trkpt>
      <trkpt lat="45.41489" lon="4.66825">
        <ele>465</ele>
        <time>2019-08-13T07:52:39Z</time>
      </trkpt>
      <trkpt lat="45.41479" lon="4.66806">
        <ele>467</ele>
        <time>2019-08-13T07:53:01Z</time>
      </trkpt>
      <trkpt lat="45.41477" lon="4.66795">
        <ele>467</ele>
        <time>2019-08-13T07:53:12Z</time>
      </trkpt>
      <trkpt lat="45.41478" lon="4.66725">
        <ele>473</ele>
        <time>2019-08-13T07:54:18Z</time>
      </trkpt>
      <trkpt lat="45.41486" lon="4.66713">
        <ele>475</ele>
        <time>2019-08-13T07:54:33Z</time>
      </trkpt>
      <trkpt lat="45.41482" lon="4.66693">
        <ele>477</ele>
        <time>2019-08-13T07:54:53Z</time>
      </trkpt>
      <trkpt lat="45.4149" lon="4.6664">
        <ele>484</ele>
        <time>2019-08-13T07:55:43Z</time>
      </trkpt>
      <trkpt lat="45.41502" lon="4.66602">
        <ele>488</ele>
        <time>2019-08-13T07:56:22Z</time>
      </trkpt>
      <trkpt lat="45.41519" lon="4.66561">
        <ele>489</ele>
        <time>2019-08-13T07:57:07Z</time>
      </trkpt>
      <trkpt lat="45.41532" lon="4.66506">
        <ele>491</ele>
        <time>2019-08-13T07:58:01Z</time>
      </trkpt>
      <trkpt lat="45.41565" lon="4.66403">
        <ele>498</ele>
        <time>2019-08-13T07:59:47Z</time>
      </trkpt>
      <trkpt lat="45.41597" lon="4.66353">
        <ele>500</ele>
        <time>2019-08-13T08:00:51Z</time>
      </trkpt>
      <trkpt lat="45.41653" lon="4.66289">
        <ele>501</ele>
        <time>2019-08-13T08:02:27Z</time>
      </trkpt>
      <trkpt lat="45.41672" lon="4.66239">
        <ele>505</ele>
        <time>2019-08-13T08:03:20Z</time>
      </trkpt>
      <trkpt lat="45.41672" lon="4.66118">
        <ele>516</ele>
        <time>2019-08-13T08:05:13Z</time>
      </trkpt>
      <trkpt lat="45.4168" lon="4.66063">
        <ele>520</ele>
        <time>2019-08-13T08:06:06Z</time>
      </trkpt>
      <trkpt lat="45.41689" lon="4.66032">
        <ele>522</ele>
        <time>2019-08-13T08:06:37Z</time>
      </trkpt>
      <trkpt lat="45.41695" lon="4.66024">
        <ele>522</ele>
        <time>2019-08-13T08:06:48Z</time>
      </trkpt>
      <trkpt lat="45.41734" lon="4.66012">
        <ele>519</ele>
        <time>2019-08-13T08:07:42Z</time>
      </trkpt>
      <trkpt lat="45.41762" lon="4.65992">
        <ele>519</ele>
        <time>2019-08-13T08:08:23Z</time>
      </trkpt>
      <trkpt lat="45.41773" lon="4.65981">
        <ele>520</ele>
        <time>2019-08-13T08:08:41Z</time>
      </trkpt>
      <trkpt lat="45.41763" lon="4.65961">
        <ele>521</ele>
        <time>2019-08-13T08:09:04Z</time>
      </trkpt>
      <trkpt lat="45.41717" lon="4.6582">
        <ele>532</ele>
        <time>2019-08-13T08:11:30Z</time>
      </trkpt>
      <trkpt lat="45.41703" lon="4.65809">
        <ele>533</ele>
        <time>2019-08-13T08:11:51Z</time>
      </trkpt>
      <trkpt lat="45.41688" lon="4.65816">
        <ele>534</ele>
        <time>2019-08-13T08:12:12Z</time>
      </trkpt>
      <trkpt lat="45.4162" lon="4.6597">
        <ele>542</ele>
        <time>2019-08-13T08:15:03Z</time>
      </trkpt>
      <trkpt lat="45.41583" lon="4.66061">
        <ele>546</ele>
        <time>2019-08-13T08:16:41Z</time>
      </trkpt>
      <trkpt lat="45.41583" lon="4.66107">
        <ele>542</ele>
        <time>2019-08-13T08:17:24Z</time>
      </trkpt>
      <trkpt lat="45.41578" lon="4.66142">
        <ele>541</ele>
        <time>2019-08-13T08:17:58Z</time>
      </trkpt>
      <trkpt lat="45.41563" lon="4.6616">
        <ele>543</ele>
        <time>2019-08-13T08:18:24Z</time>
      </trkpt>
      <trkpt lat="45.41546" lon="4.66161">
        <ele>546</ele>
        <time>2019-08-13T08:18:47Z</time>
      </trkpt>
      <trkpt lat="45.41524" lon="4.66155">
        <ele>551</ele>
        <time>2019-08-13T08:19:17Z</time>
      </trkpt>
      <trkpt lat="45.41499" lon="4.66156">
        <ele>556</ele>
        <time>2019-08-13T08:19:50Z</time>
      </trkpt>
      <trkpt lat="45.41469" lon="4.66173">
        <ele>557</ele>
        <time>2019-08-13T08:20:33Z</time>
      </trkpt>
      <trkpt lat="45.41448" lon="4.66182">
        <ele>558</ele>
        <time>2019-08-13T08:21:02Z</time>
      </trkpt>
      <trkpt lat="45.41424" lon="4.66174">
        <ele>562</ele>
        <time>2019-08-13T08:21:35Z</time>
      </trkpt>
      <trkpt lat="45.41396" lon="4.66151">
        <ele>564</ele>
        <time>2019-08-13T08:22:18Z</time>
      </trkpt>
      <trkpt lat="45.41325" lon="4.66064">
        <ele>568</ele>
        <time>2019-08-13T08:24:23Z</time>
      </trkpt>
      <trkpt lat="45.41321" lon="4.66038">
        <ele>570</ele>
        <time>2019-08-13T08:24:48Z</time>
      </trkpt>
      <trkpt lat="45.41312" lon="4.66009">
        <ele>572</ele>
        <time>2019-08-13T08:25:18Z</time>
      </trkpt>
      <trkpt lat="45.41278" lon="4.65938">
        <ele>577</ele>
        <time>2019-08-13T08:26:38Z</time>
      </trkpt>
      <trkpt lat="45.41274" lon="4.65908">
        <ele>580</ele>
        <time>2019-08-13T08:27:07Z</time>
      </trkpt>
      <trkpt lat="45.41277" lon="4.65892">
        <ele>582</ele>
        <time>2019-08-13T08:27:23Z</time>
      </trkpt>
      <trkpt lat="45.41287" lon="4.65865">
        <ele>584</ele>
        <time>2019-08-13T08:27:51Z</time>
      </trkpt>
      <trkpt lat="45.41309" lon="4.65826">
        <ele>588</ele>
        <time>2019-08-13T08:28:38Z</time>
      </trkpt>
      <trkpt lat="45.41296" lon="4.6581">
        <ele>588</ele>
        <time>2019-08-13T08:29:01Z</time>
      </trkpt>
      <trkpt lat="45.41289" lon="4.65771">
        <ele>591</ele>
        <time>2019-08-13T08:29:39Z</time>
      </trkpt>
      <trkpt lat="45.41277" lon="4.65741">
        <ele>593</ele>
        <time>2019-08-13T08:30:11Z</time>
      </trkpt>
      <trkpt lat="45.41261" lon="4.65715">
        <ele>595</ele>
        <time>2019-08-13T08:30:43Z</time>
      </trkpt>
      <trkpt lat="45.41255" lon="4.65697">
        <ele>596</ele>
        <time>2019-08-13T08:31:02Z</time>
      </trkpt>
      <trkpt lat="45.41254" lon="4.65668">
        <ele>597</ele>
        <time>2019-08-13T08:31:29Z</time>
      </trkpt>
      <trkpt lat="45.41244" lon="4.65645">
        <ele>599</ele>
        <time>2019-08-13T08:31:55Z</time>
      </trkpt>
      <trkpt lat="45.41223" lon="4.65616">
        <ele>603</ele>
        <time>2019-08-13T08:32:34Z</time>
      </trkpt>
      <trkpt lat="45.41211" lon="4.65578">
        <ele>609</ele>
        <time>2019-08-13T08:33:13Z</time>
      </trkpt>
      <trkpt lat="45.41203" lon="4.65542">
        <ele>613</ele>
        <time>2019-08-13T08:33:48Z</time>
      </trkpt>
      <trkpt lat="45.41186" lon="4.65509">
        <ele>619</ele>
        <time>2019-08-13T08:34:26Z</time>
      </trkpt>
      <trkpt lat="45.41169" lon="4.65481">
        <ele>624</ele>
        <time>2019-08-13T08:35:01Z</time>
      </trkpt>
      <trkpt lat="45.41139" lon="4.65449">
        <ele>624</ele>
        <time>2019-08-13T08:35:51Z</time>
      </trkpt>
      <trkpt lat="45.41137" lon="4.65453">
        <ele>624</ele>
        <time>2019-08-13T08:35:56Z</time>
      </trkpt>
      <trkpt lat="45.41135" lon="4.65451">
        <ele>624</ele>
        <time>2019-08-13T08:35:59Z</time>
      </trkpt>
      <trkpt lat="45.41133" lon="4.65417">
        <ele>626</ele>
        <time>2019-08-13T08:36:31Z</time>
      </trkpt>
      <trkpt lat="45.41119" lon="4.65365">
        <ele>632</ele>
        <time>2019-08-13T08:37:23Z</time>
      </trkpt>
      <trkpt lat="45.41076" lon="4.65291">
        <ele>640</ele>
        <time>2019-08-13T08:38:53Z</time>
      </trkpt>
      <trkpt lat="45.40997" lon="4.65107">
        <ele>659</ele>
        <time>2019-08-13T08:42:15Z</time>
      </trkpt>
      <trkpt lat="45.40966" lon="4.65057">
        <ele>663</ele>
        <time>2019-08-13T08:43:18Z</time>
      </trkpt>
      <trkpt lat="45.40945" lon="4.65012">
        <ele>670</ele>
        <time>2019-08-13T08:44:08Z</time>
      </trkpt>
      <trkpt lat="45.40933" lon="4.65">
        <ele>670</ele>
        <time>2019-08-13T08:44:28Z</time>
      </trkpt>
      <trkpt lat="45.40917" lon="4.64972">
        <ele>673</ele>
        <time>2019-08-13T08:45:02Z</time>
      </trkpt>
      <trkpt lat="45.40884" lon="4.6487">
        <ele>685</ele>
        <time>2019-08-13T08:46:47Z</time>
      </trkpt>
      <trkpt lat="45.40856" lon="4.64805">
        <ele>689</ele>
        <time>2019-08-13T08:47:58Z</time>
      </trkpt>
      <trkpt lat="45.40822" lon="4.64709">
        <ele>700</ele>
        <time>2019-08-13T08:49:39Z</time>
      </trkpt>
      <trkpt lat="45.40806" lon="4.64651">
        <ele>705</ele>
        <time>2019-08-13T08:50:37Z</time>
      </trkpt>
      <trkpt lat="45.40792" lon="4.64575">
        <ele>714</ele>
        <time>2019-08-13T08:51:51Z</time>
      </trkpt>
      <trkpt lat="45.40771" lon="4.64508">
        <ele>717</ele>
        <time>2019-08-13T08:53:00Z</time>
      </trkpt>
      <trkpt lat="45.4078" lon="4.64516">
        <ele>718</ele>
        <time>2019-08-13T08:53:14Z</time>
      </trkpt>
      <trkpt lat="45.40797" lon="4.64523">
        <ele>721</ele>
        <time>2019-08-13T08:53:38Z</time>
      </trkpt>
      <trkpt lat="45.40814" lon="4.64511">
        <ele>727</ele>
        <time>2019-08-13T08:54:03Z</time>
      </trkpt>
      <trkpt lat="45.40815" lon="4.64502">
        <ele>728</ele>
        <time>2019-08-13T08:54:11Z</time>
      </trkpt>
      <trkpt lat="45.40809" lon="4.64479">
        <ele>729</ele>
        <time>2019-08-13T08:54:34Z</time>
      </trkpt>
      <trkpt lat="45.40825" lon="4.64462">
        <ele>735</ele>
        <time>2019-08-13T08:55:01Z</time>
      </trkpt>
      <trkpt lat="45.4083" lon="4.64463">
        <ele>736</ele>
        <time>2019-08-13T08:55:08Z</time>
      </trkpt>
      <trkpt lat="45.40848" lon="4.64488">
        <ele>737</ele>
        <time>2019-08-13T08:55:41Z</time>
      </trkpt>
      <trkpt lat="45.40861" lon="4.64514">
        <ele>737</ele>
        <time>2019-08-13T08:56:11Z</time>
      </trkpt>
      <trkpt lat="45.40879" lon="4.64537">
        <ele>739</ele>
        <time>2019-08-13T08:56:43Z</time>
      </trkpt>
      <trkpt lat="45.40889" lon="4.64547">
        <ele>740</ele>
        <time>2019-08-13T08:57:00Z</time>
      </trkpt>
      <trkpt lat="45.4091" lon="4.64557">
        <ele>743</ele>
        <time>2019-08-13T08:57:29Z</time>
      </trkpt>
      <trkpt lat="45.4103" lon="4.64587">
        <ele>757</ele>
        <time>2019-08-13T09:00:12Z</time>
      </trkpt>
      <trkpt lat="45.4105" lon="4.64587">
        <ele>758</ele>
        <time>2019-08-13T09:00:39Z</time>
      </trkpt>
      <trkpt lat="45.41107" lon="4.64544">
        <ele>765</ele>
        <time>2019-08-13T09:02:05Z</time>
      </trkpt>
      <trkpt lat="45.41172" lon="4.64485">
        <ele>767</ele>
        <time>2019-08-13T09:03:48Z</time>
      </trkpt>
      <trkpt lat="45.41223" lon="4.64444">
        <ele>768</ele>
        <time>2019-08-13T09:05:06Z</time>
      </trkpt>
      <trkpt lat="45.41243" lon="4.64425">
        <ele>769</ele>
        <time>2019-08-13T09:05:38Z</time>
      </trkpt>
      <trkpt lat="45.41285" lon="4.64375">
        <ele>769</ele>
        <time>2019-08-13T09:06:51Z</time>
      </trkpt>
      <trkpt lat="45.41291" lon="4.64362">
        <ele>769</ele>
        <time>2019-08-13T09:07:05Z</time>
      </trkpt>
      <trkpt lat="45.4129" lon="4.6432">
        <ele>771</ele>
        <time>2019-08-13T09:07:45Z</time>
      </trkpt>
      <trkpt lat="45.41285" lon="4.64292">
        <ele>773</ele>
        <time>2019-08-13T09:08:12Z</time>
      </trkpt>
      <trkpt lat="45.41256" lon="4.64207">
        <ele>781</ele>
        <time>2019-08-13T09:09:40Z</time>
      </trkpt>
      <trkpt lat="45.41239" lon="4.6417">
        <ele>786</ele>
        <time>2019-08-13T09:10:22Z</time>
      </trkpt>
      <trkpt lat="45.41221" lon="4.64121">
        <ele>791</ele>
        <time>2019-08-13T09:11:14Z</time>
      </trkpt>
      <trkpt lat="45.41169" lon="4.64007">
        <ele>800</ele>
        <time>2019-08-13T09:13:21Z</time>
      </trkpt>
      <trkpt lat="45.41139" lon="4.63956">
        <ele>805</ele>
        <time>2019-08-13T09:14:23Z</time>
      </trkpt>
      <trkpt lat="45.41093" lon="4.63861">
        <ele>813</ele>
        <time>2019-08-13T09:16:11Z</time>
      </trkpt>
      <trkpt lat="45.41085" lon="4.63835">
        <ele>815</ele>
        <time>2019-08-13T09:16:38Z</time>
      </trkpt>
      <trkpt lat="45.41074" lon="4.63825">
        <ele>816</ele>
        <time>2019-08-13T09:16:55Z</time>
      </trkpt>
      <trkpt lat="45.41061" lon="4.63819">
        <ele>817</ele>
        <time>2019-08-13T09:17:14Z</time>
      </trkpt>
      <trkpt lat="45.41048" lon="4.6382">
        <ele>819</ele>
        <time>2019-08-13T09:17:31Z</time>
      </trkpt>
      <trkpt lat="45.41029" lon="4.63829">
        <ele>821</ele>
        <time>2019-08-13T09:17:58Z</time>
      </trkpt>
      <trkpt lat="45.41" lon="4.6383">
        <ele>824</ele>
        <time>2019-08-13T09:18:36Z</time>
      </trkpt>
      <trkpt lat="45.40973" lon="4.63843">
        <ele>825</ele>
        <time>2019-08-13T09:19:14Z</time>
      </trkpt>
      <trkpt lat="45.40959" lon="4.63838">
        <ele>826</ele>
        <time>2019-08-13T09:19:34Z</time>
      </trkpt>
      <trkpt lat="45.40946" lon="4.63825">
        <ele>828</ele>
        <time>2019-08-13T09:19:55Z</time>
      </trkpt>
      <trkpt lat="45.40928" lon="4.63796">
        <ele>830</ele>
        <time>2019-08-13T09:20:31Z</time>
      </trkpt>
      <trkpt lat="45.40917" lon="4.63773">
        <ele>831</ele>
        <time>2019-08-13T09:20:57Z</time>
      </trkpt>
      <trkpt lat="45.40893" lon="4.63753">
        <ele>834</ele>
        <time>2019-08-13T09:21:34Z</time>
      </trkpt>
      <trkpt lat="45.40857" lon="4.63705">
        <ele>840</ele>
        <time>2019-08-13T09:22:40Z</time>
      </trkpt>
      <trkpt lat="45.40825" lon="4.63675">
        <ele>847</ele>
        <time>2019-08-13T09:23:31Z</time>
      </trkpt>
      <trkpt lat="45.40817" lon="4.63649">
        <ele>849</ele>
        <time>2019-08-13T09:23:58Z</time>
      </trkpt>
      <trkpt lat="45.40803" lon="4.63631">
        <ele>851</ele>
        <time>2019-08-13T09:24:23Z</time>
      </trkpt>
      <trkpt lat="45.40774" lon="4.63585">
        <ele>858</ele>
        <time>2019-08-13T09:25:21Z</time>
      </trkpt>
      <trkpt lat="45.40724" lon="4.63455">
        <ele>868</ele>
        <time>2019-08-13T09:27:40Z</time>
      </trkpt>
      <trkpt lat="45.40708" lon="4.63352">
        <ele>875</ele>
        <time>2019-08-13T09:29:19Z</time>
      </trkpt>
      <trkpt lat="45.40702" lon="4.63287">
        <ele>879</ele>
        <time>2019-08-13T09:30:20Z</time>
      </trkpt>
      <trkpt lat="45.40688" lon="4.63227">
        <ele>884</ele>
        <time>2019-08-13T09:31:19Z</time>
      </trkpt>
      <trkpt lat="45.40689" lon="4.63233">
        <ele>884</ele>
        <time>2019-08-13T09:31:25Z</time>
      </trkpt>
      <trkpt lat="45.4068" lon="4.63296">
        <ele>886</ele>
        <time>2019-08-13T09:32:25Z</time>
      </trkpt>
      <trkpt lat="45.40674" lon="4.63304">
        <ele>887</ele>
        <time>2019-08-13T09:32:36Z</time>
      </trkpt>
      <trkpt lat="45.40658" lon="4.63308">
        <ele>890</ele>
        <time>2019-08-13T09:32:58Z</time>
      </trkpt>
      <trkpt lat="45.40627" lon="4.63308">
        <ele>893</ele>
        <time>2019-08-13T09:33:39Z</time>
      </trkpt>
      <trkpt lat="45.40596" lon="4.63318">
        <ele>895</ele>
        <time>2019-08-13T09:34:22Z</time>
      </trkpt>
      <trkpt lat="45.40571" lon="4.63318">
        <ele>894</ele>
        <time>2019-08-13T09:34:55Z</time>
      </trkpt>
      <trkpt lat="45.40564" lon="4.63315">
        <ele>893</ele>
        <time>2019-08-13T09:35:05Z</time>
      </trkpt>
      <trkpt lat="45.40551" lon="4.63287">
        <ele>895</ele>
        <time>2019-08-13T09:35:36Z</time>
      </trkpt>
      <trkpt lat="45.40538" lon="4.63224">
        <ele>902</ele>
        <time>2019-08-13T09:36:38Z</time>
      </trkpt>
      <trkpt lat="45.40545" lon="4.63168">
        <ele>909</ele>
        <time>2019-08-13T09:37:31Z</time>
      </trkpt>
      <trkpt lat="45.40545" lon="4.63141">
        <ele>912</ele>
        <time>2019-08-13T09:37:56Z</time>
      </trkpt>
      <trkpt lat="45.4054" lon="4.6309">
        <ele>918</ele>
        <time>2019-08-13T09:38:45Z</time>
      </trkpt>
      <trkpt lat="45.40534" lon="4.6306">
        <ele>922</ele>
        <time>2019-08-13T09:39:14Z</time>
      </trkpt>
      <trkpt lat="45.40522" lon="4.63049">
        <ele>925</ele>
        <time>2019-08-13T09:39:33Z</time>
      </trkpt>
      <trkpt lat="45.40514" lon="4.63048">
        <ele>926</ele>
        <time>2019-08-13T09:39:44Z</time>
      </trkpt>
      <trkpt lat="45.40495" lon="4.63055">
        <ele>926</ele>
        <time>2019-08-13T09:40:10Z</time>
      </trkpt>
      <trkpt lat="45.40478" lon="4.63057">
        <ele>924</ele>
        <time>2019-08-13T09:40:33Z</time>
      </trkpt>
      <trkpt lat="45.40458" lon="4.63055">
        <ele>921</ele>
        <time>2019-08-13T09:40:59Z</time>
      </trkpt>
      <trkpt lat="45.40435" lon="4.63045">
        <ele>921</ele>
        <time>2019-08-13T09:41:31Z</time>
      </trkpt>
      <trkpt lat="45.40406" lon="4.6302">
        <ele>921</ele>
        <time>2019-08-13T09:42:17Z</time>
      </trkpt>
      <trkpt lat="45.40356" lon="4.62946">
        <ele>925</ele>
        <time>2019-08-13T09:43:53Z</time>
      </trkpt>
      <trkpt lat="45.40326" lon="4.62897">
        <ele>932</ele>
        <time>2019-08-13T09:44:54Z</time>
      </trkpt>
      <trkpt lat="45.40303" lon="4.62883">
        <ele>931</ele>
        <time>2019-08-13T09:45:27Z</time>
      </trkpt>
      <trkpt lat="45.40241" lon="4.62781">
        <ele>941</ele>
        <time>2019-08-13T09:47:34Z</time>
      </trkpt>
      <trkpt lat="45.40229" lon="4.62781">
        <ele>939</ele>
        <time>2019-08-13T09:47:50Z</time>
      </trkpt>
      <trkpt lat="45.40175" lon="4.62753">
        <ele>935</ele>
        <time>2019-08-13T09:49:06Z</time>
      </trkpt>
      <trkpt lat="45.40139" lon="4.62716">
        <ele>942</ele>
        <time>2019-08-13T09:50:06Z</time>
      </trkpt>
      <trkpt lat="45.40116" lon="4.6267">
        <ele>954</ele>
        <time>2019-08-13T09:50:58Z</time>
      </trkpt>
      <trkpt lat="45.4014" lon="4.62668">
        <ele>959</ele>
        <time>2019-08-13T09:51:31Z</time>
      </trkpt>
      <trkpt lat="45.40158" lon="4.62661">
        <ele>965</ele>
        <time>2019-08-13T09:51:55Z</time>
      </trkpt>
      <trkpt lat="45.40184" lon="4.62627">
        <ele>981</ele>
        <time>2019-08-13T09:52:43Z</time>
      </trkpt>
      <trkpt lat="45.40215" lon="4.62625">
        <ele>987</ele>
        <time>2019-08-13T09:53:24Z</time>
      </trkpt>
      <trkpt lat="45.4022" lon="4.62647">
        <ele>980</ele>
        <time>2019-08-13T09:53:46Z</time>
      </trkpt>
      <trkpt lat="45.40305" lon="4.62617">
        <ele>1003</ele>
        <time>2019-08-13T09:55:43Z</time>
      </trkpt>
      <trkpt lat="45.40256" lon="4.62602">
        <ele>1001</ele>
        <time>2019-08-13T09:56:49Z</time>
      </trkpt>
      <trkpt lat="45.40181" lon="4.62569">
        <ele>999</ele>
        <time>2019-08-13T09:58:34Z</time>
      </trkpt>
      <trkpt lat="45.40179" lon="4.62577">
        <ele>996</ele>
        <time>2019-08-13T09:58:42Z</time>
      </trkpt>
      <trkpt lat="45.40153" lon="4.62563">
        <ele>994</ele>
        <time>2019-08-13T09:59:19Z</time>
      </trkpt>
      <trkpt lat="45.39865" lon="4.62363">
        <ele>998</ele>
        <time>2019-08-13T10:06:27Z</time>
      </trkpt>
      <trkpt lat="45.39813" lon="4.62314">
        <ele>1004</ele>
        <time>2019-08-13T10:07:50Z</time>
      </trkpt>
      <trkpt lat="45.39767" lon="4.62293">
        <ele>997</ele>
        <time>2019-08-13T10:08:54Z</time>
      </trkpt>
      <trkpt lat="45.39722" lon="4.6225">
        <ele>994</ele>
        <time>2019-08-13T10:10:07Z</time>
      </trkpt>
      <trkpt lat="45.39691" lon="4.62158">
        <ele>1010</ele>
        <time>2019-08-13T10:11:42Z</time>
      </trkpt>
      <trkpt lat="45.39663" lon="4.62096">
        <ele>1019</ele>
        <time>2019-08-13T10:12:51Z</time>
      </trkpt>
      <trkpt lat="45.39636" lon="4.62078">
        <ele>1021</ele>
        <time>2019-08-13T10:13:31Z</time>
      </trkpt>
      <trkpt lat="45.39601" lon="4.62063">
        <ele>1021</ele>
        <time>2019-08-13T10:14:20Z</time>
      </trkpt>
      <trkpt lat="45.39569" lon="4.62084">
        <ele>1010</ele>
        <time>2019-08-13T10:15:07Z</time>
      </trkpt>
      <trkpt lat="45.39539" lon="4.62052">
        <ele>1019</ele>
        <time>2019-08-13T10:15:57Z</time>
      </trkpt>
      <trkpt lat="45.39505" lon="4.62039">
        <ele>1022</ele>
        <time>2019-08-13T10:16:44Z</time>
      </trkpt>
      <trkpt lat="45.39477" lon="4.62056">
        <ele>1020</ele>
        <time>2019-08-13T10:17:25Z</time>
      </trkpt>
      <trkpt lat="45.39428" lon="4.62202">
        <ele>985</ele>
        <time>2019-08-13T10:19:56Z</time>
      </trkpt>
      <trkpt lat="45.39425" lon="4.62222">
        <ele>980</ele>
        <time>2019-08-13T10:20:15Z</time>
      </trkpt>
      <trkpt lat="45.39439" lon="4.62252">
        <ele>970</ele>
        <time>2019-08-13T10:20:49Z</time>
      </trkpt>
      <trkpt lat="45.39459" lon="4.62321">
        <ele>949</ele>
        <time>2019-08-13T10:21:59Z</time>
      </trkpt>
      <trkpt lat="45.39456" lon="4.62354">
        <ele>942</ele>
        <time>2019-08-13T10:22:30Z</time>
      </trkpt>
      <trkpt lat="45.39441" lon="4.62356">
        <ele>944</ele>
        <time>2019-08-13T10:22:50Z</time>
      </trkpt>
      <trkpt lat="45.39414" lon="4.62339">
        <ele>951</ele>
        <time>2019-08-13T10:23:30Z</time>
      </trkpt>
      <trkpt lat="45.39393" lon="4.62334">
        <ele>956</ele>
        <time>2019-08-13T10:23:58Z</time>
      </trkpt>
      <trkpt lat="45.39369" lon="4.62357">
        <ele>958</ele>
        <time>2019-08-13T10:24:37Z</time>
      </trkpt>
      <trkpt lat="45.39358" lon="4.62414">
        <ele>955</ele>
        <time>2019-08-13T10:25:32Z</time>
      </trkpt>
      <trkpt lat="45.39358" lon="4.62497">
        <ele>953</ele>
        <time>2019-08-13T10:26:50Z</time>
      </trkpt>
      <trkpt lat="45.39375" lon="4.62568">
        <ele>947</ele>
        <time>2019-08-13T10:28:00Z</time>
      </trkpt>
      <trkpt lat="45.39409" lon="4.62644">
        <ele>939</ele>
        <time>2019-08-13T10:29:25Z</time>
      </trkpt>
      <trkpt lat="45.39431" lon="4.62723">
        <ele>934</ele>
        <time>2019-08-13T10:30:44Z</time>
      </trkpt>
      <trkpt lat="45.3944" lon="4.62797">
        <ele>928</ele>
        <time>2019-08-13T10:31:55Z</time>
      </trkpt>
      <trkpt lat="45.39441" lon="4.62832">
        <ele>926</ele>
        <time>2019-08-13T10:32:28Z</time>
      </trkpt>
      <trkpt lat="45.39411" lon="4.62926">
        <ele>930</ele>
        <time>2019-08-13T10:34:04Z</time>
      </trkpt>
      <trkpt lat="45.394" lon="4.6298">
        <ele>932</ele>
        <time>2019-08-13T10:34:57Z</time>
      </trkpt>
      <trkpt lat="45.39369" lon="4.63089">
        <ele>933</ele>
        <time>2019-08-13T10:36:47Z</time>
      </trkpt>
      <trkpt lat="45.39371" lon="4.63217">
        <ele>925</ele>
        <time>2019-08-13T10:38:47Z</time>
      </trkpt>
      <trkpt lat="45.39401" lon="4.63351">
        <ele>912</ele>
        <time>2019-08-13T10:40:59Z</time>
      </trkpt>
      <trkpt lat="45.3943" lon="4.63451">
        <ele>910</ele>
        <time>2019-08-13T10:42:40Z</time>
      </trkpt>
      <trkpt lat="45.39488" lon="4.63572">
        <ele>910</ele>
        <time>2019-08-13T10:44:58Z</time>
      </trkpt>
      <trkpt lat="45.39474" lon="4.63565">
        <ele>913</ele>
        <time>2019-08-13T10:45:18Z</time>
      </trkpt>
      <trkpt lat="45.39431" lon="4.6352">
        <ele>919</ele>
        <time>2019-08-13T10:46:29Z</time>
      </trkpt>
      <trkpt lat="45.39397" lon="4.63489">
        <ele>925</ele>
        <time>2019-08-13T10:47:23Z</time>
      </trkpt>
      <trkpt lat="45.39383" lon="4.63473">
        <ele>927</ele>
        <time>2019-08-13T10:47:47Z</time>
      </trkpt>
      <trkpt lat="45.3937" lon="4.63463">
        <ele>930</ele>
        <time>2019-08-13T10:48:06Z</time>
      </trkpt>
      <trkpt lat="45.39359" lon="4.6345">
        <ele>932</ele>
        <time>2019-08-13T10:48:25Z</time>
      </trkpt>
      <trkpt lat="45.39343" lon="4.63422">
        <ele>934</ele>
        <time>2019-08-13T10:48:59Z</time>
      </trkpt>
      <trkpt lat="45.39324" lon="4.63397">
        <ele>939</ele>
        <time>2019-08-13T10:49:34Z</time>
      </trkpt>
      <trkpt lat="45.3932" lon="4.63401">
        <ele>940</ele>
        <time>2019-08-13T10:49:40Z</time>
      </trkpt>
      <trkpt lat="45.3932" lon="4.63416">
        <ele>940</ele>
        <time>2019-08-13T10:49:54Z</time>
      </trkpt>
      <trkpt lat="45.39326" lon="4.63475">
        <ele>944</ele>
        <time>2019-08-13T10:50:50Z</time>
      </trkpt>
      <trkpt lat="45.39327" lon="4.63519">
        <ele>949</ele>
        <time>2019-08-13T10:51:31Z</time>
      </trkpt>
      <trkpt lat="45.39351" lon="4.63619">
        <ele>955</ele>
        <time>2019-08-13T10:53:10Z</time>
      </trkpt>
      <trkpt lat="45.39377" lon="4.63684">
        <ele>959</ele>
        <time>2019-08-13T10:54:21Z</time>
      </trkpt>
      <trkpt lat="45.39378" lon="4.63713">
        <ele>963</ele>
        <time>2019-08-13T10:54:48Z</time>
      </trkpt>
      <trkpt lat="45.39376" lon="4.63737">
        <ele>966</ele>
        <time>2019-08-13T10:55:10Z</time>
      </trkpt>
      <trkpt lat="45.39369" lon="4.63762">
        <ele>969</ele>
        <time>2019-08-13T10:55:36Z</time>
      </trkpt>
      <trkpt lat="45.39345" lon="4.63754">
        <ele>971</ele>
        <time>2019-08-13T10:56:08Z</time>
      </trkpt>
      <trkpt lat="45.39351" lon="4.63779">
        <ele>971</ele>
        <time>2019-08-13T10:56:33Z</time>
      </trkpt>
      <trkpt lat="45.39368" lon="4.63813">
        <ele>973</ele>
        <time>2019-08-13T10:57:12Z</time>
      </trkpt>
      <trkpt lat="45.39374" lon="4.63847">
        <ele>975</ele>
        <time>2019-08-13T10:57:45Z</time>
      </trkpt>
      <trkpt lat="45.39385" lon="4.63886">
        <ele>976</ele>
        <time>2019-08-13T10:58:25Z</time>
      </trkpt>
      <trkpt lat="45.39392" lon="4.63901">
        <ele>978</ele>
        <time>2019-08-13T10:58:41Z</time>
      </trkpt>
      <trkpt lat="45.39407" lon="4.63922">
        <ele>981</ele>
        <time>2019-08-13T10:59:10Z</time>
      </trkpt>
      <trkpt lat="45.39421" lon="4.63932">
        <ele>981</ele>
        <time>2019-08-13T10:59:30Z</time>
      </trkpt>
      <trkpt lat="45.39439" lon="4.63932">
        <ele>980</ele>
        <time>2019-08-13T10:59:54Z</time>
      </trkpt>
      <trkpt lat="45.3947" lon="4.63921">
        <ele>979</ele>
        <time>2019-08-13T11:00:37Z</time>
      </trkpt>
      <trkpt lat="45.39473" lon="4.63923">
        <ele>979</ele>
        <time>2019-08-13T11:00:42Z</time>
      </trkpt>
      <trkpt lat="45.39466" lon="4.63927">
        <ele>979</ele>
        <time>2019-08-13T11:00:52Z</time>
      </trkpt>
      <trkpt lat="45.39468" lon="4.63929">
        <ele>979</ele>
        <time>2019-08-13T11:00:55Z</time>
      </trkpt>
      <trkpt lat="45.39491" lon="4.63924">
        <ele>978</ele>
        <time>2019-08-13T11:01:26Z</time>
      </trkpt>
      <trkpt lat="45.39491" lon="4.6393">
        <ele>977</ele>
        <time>2019-08-13T11:01:32Z</time>
      </trkpt>
      <trkpt lat="45.39476" lon="4.63932">
        <ele>978</ele>
        <time>2019-08-13T11:01:52Z</time>
      </trkpt>
      <trkpt lat="45.39464" lon="4.63946">
        <ele>977</ele>
        <time>2019-08-13T11:02:12Z</time>
      </trkpt>
      <trkpt lat="45.39456" lon="4.63951">
        <ele>977</ele>
        <time>2019-08-13T11:02:24Z</time>
      </trkpt>
      <trkpt lat="45.39455" lon="4.63957">
        <ele>976</ele>
        <time>2019-08-13T11:02:30Z</time>
      </trkpt>
      <trkpt lat="45.39484" lon="4.63963">
        <ele>974</ele>
        <time>2019-08-13T11:03:09Z</time>
      </trkpt>
      <trkpt lat="45.395" lon="4.6396">
        <ele>973</ele>
        <time>2019-08-13T11:03:30Z</time>
      </trkpt>
      <trkpt lat="45.39508" lon="4.63967">
        <ele>970</ele>
        <time>2019-08-13T11:03:43Z</time>
      </trkpt>
      <trkpt lat="45.39506" lon="4.63979">
        <ele>969</ele>
        <time>2019-08-13T11:03:54Z</time>
      </trkpt>
      <trkpt lat="45.39508" lon="4.63993">
        <ele>967</ele>
        <time>2019-08-13T11:04:08Z</time>
      </trkpt>
      <trkpt lat="45.39519" lon="4.64005">
        <ele>962</ele>
        <time>2019-08-13T11:04:26Z</time>
      </trkpt>
      <trkpt lat="45.39523" lon="4.64017">
        <ele>960</ele>
        <time>2019-08-13T11:04:39Z</time>
      </trkpt>
      <trkpt lat="45.39523" lon="4.64023">
        <ele>959</ele>
        <time>2019-08-13T11:04:44Z</time>
      </trkpt>
      <trkpt lat="45.39519" lon="4.64032">
        <ele>959</ele>
        <time>2019-08-13T11:04:54Z</time>
      </trkpt>
      <trkpt lat="45.39512" lon="4.6404">
        <ele>959</ele>
        <time>2019-08-13T11:05:06Z</time>
      </trkpt>
      <trkpt lat="45.39517" lon="4.64063">
        <ele>955</ele>
        <time>2019-08-13T11:05:29Z</time>
      </trkpt>
      <trkpt lat="45.39539" lon="4.64096">
        <ele>945</ele>
        <time>2019-08-13T11:06:12Z</time>
      </trkpt>
      <trkpt lat="45.39545" lon="4.6411">
        <ele>942</ele>
        <time>2019-08-13T11:06:27Z</time>
      </trkpt>
      <trkpt lat="45.39552" lon="4.64147">
        <ele>936</ele>
        <time>2019-08-13T11:07:03Z</time>
      </trkpt>
      <trkpt lat="45.39613" lon="4.64262">
        <ele>918</ele>
        <time>2019-08-13T11:09:18Z</time>
      </trkpt>
      <trkpt lat="45.39638" lon="4.64333">
        <ele>915</ele>
        <time>2019-08-13T11:10:32Z</time>
      </trkpt>
      <trkpt lat="45.39664" lon="4.64382">
        <ele>910</ele>
        <time>2019-08-13T11:11:30Z</time>
      </trkpt>
      <trkpt lat="45.39681" lon="4.64425">
        <ele>906</ele>
        <time>2019-08-13T11:12:16Z</time>
      </trkpt>
      <trkpt lat="45.39685" lon="4.64453">
        <ele>904</ele>
        <time>2019-08-13T11:12:43Z</time>
      </trkpt>
      <trkpt lat="45.39733" lon="4.64648">
        <ele>892</ele>
        <time>2019-08-13T11:15:57Z</time>
      </trkpt>
      <trkpt lat="45.39755" lon="4.64771">
        <ele>891</ele>
        <time>2019-08-13T11:17:55Z</time>
      </trkpt>
      <trkpt lat="45.39772" lon="4.64792">
        <ele>889</ele>
        <time>2019-08-13T11:18:26Z</time>
      </trkpt>
      <trkpt lat="45.39831" lon="4.64846">
        <ele>883</ele>
        <time>2019-08-13T11:19:59Z</time>
      </trkpt>
      <trkpt lat="45.39847" lon="4.64866">
        <ele>879</ele>
        <time>2019-08-13T11:20:28Z</time>
      </trkpt>
      <trkpt lat="45.39879" lon="4.64912">
        <ele>875</ele>
        <time>2019-08-13T11:21:28Z</time>
      </trkpt>
      <trkpt lat="45.39895" lon="4.64948">
        <ele>873</ele>
        <time>2019-08-13T11:22:08Z</time>
      </trkpt>
      <trkpt lat="45.39896" lon="4.64981">
        <ele>871</ele>
        <time>2019-08-13T11:22:39Z</time>
      </trkpt>
      <trkpt lat="45.39889" lon="4.65027">
        <ele>869</ele>
        <time>2019-08-13T11:23:23Z</time>
      </trkpt>
      <trkpt lat="45.39876" lon="4.65084">
        <ele>863</ele>
        <time>2019-08-13T11:24:19Z</time>
      </trkpt>
      <trkpt lat="45.39874" lon="4.65112">
        <ele>860</ele>
        <time>2019-08-13T11:24:46Z</time>
      </trkpt>
      <trkpt lat="45.39883" lon="4.65175">
        <ele>854</ele>
        <time>2019-08-13T11:25:46Z</time>
      </trkpt>
      <trkpt lat="45.39892" lon="4.65214">
        <ele>849</ele>
        <time>2019-08-13T11:26:24Z</time>
      </trkpt>
      <trkpt lat="45.39903" lon="4.65248">
        <ele>846</ele>
        <time>2019-08-13T11:26:59Z</time>
      </trkpt>
      <trkpt lat="45.39879" lon="4.65272">
        <ele>839</ele>
        <time>2019-08-13T11:27:39Z</time>
      </trkpt>
      <trkpt lat="45.39863" lon="4.65279">
        <ele>836</ele>
        <time>2019-08-13T11:28:01Z</time>
      </trkpt>
      <trkpt lat="45.39825" lon="4.6528">
        <ele>829</ele>
        <time>2019-08-13T11:28:52Z</time>
      </trkpt>
      <trkpt lat="45.39794" lon="4.65272">
        <ele>822</ele>
        <time>2019-08-13T11:29:34Z</time>
      </trkpt>
      <trkpt lat="45.39752" lon="4.65255">
        <ele>813</ele>
        <time>2019-08-13T11:30:32Z</time>
      </trkpt>
      <trkpt lat="45.39709" lon="4.65234">
        <ele>810</ele>
        <time>2019-08-13T11:31:33Z</time>
      </trkpt>
      <trkpt lat="45.39694" lon="4.65233">
        <ele>808</ele>
        <time>2019-08-13T11:31:53Z</time>
      </trkpt>
      <trkpt lat="45.3968" lon="4.65246">
        <ele>801</ele>
        <time>2019-08-13T11:32:15Z</time>
      </trkpt>
      <trkpt lat="45.39642" lon="4.65266">
        <ele>788</ele>
        <time>2019-08-13T11:33:09Z</time>
      </trkpt>
      <trkpt lat="45.39639" lon="4.65276">
        <ele>784</ele>
        <time>2019-08-13T11:33:19Z</time>
      </trkpt>
      <trkpt lat="45.3968" lon="4.65387">
        <ele>763</ele>
        <time>2019-08-13T11:35:17Z</time>
      </trkpt>
      <trkpt lat="45.3968" lon="4.65399">
        <ele>760</ele>
        <time>2019-08-13T11:35:28Z</time>
      </trkpt>
      <trkpt lat="45.3966" lon="4.65397">
        <ele>755</ele>
        <time>2019-08-13T11:35:55Z</time>
      </trkpt>
      <trkpt lat="45.39658" lon="4.65401">
        <ele>754</ele>
        <time>2019-08-13T11:35:59Z</time>
      </trkpt>
      <trkpt lat="45.39613" lon="4.65377">
        <ele>753</ele>
        <time>2019-08-13T11:37:03Z</time>
      </trkpt>
      <trkpt lat="45.39582" lon="4.65356">
        <ele>753</ele>
        <time>2019-08-13T11:37:49Z</time>
      </trkpt>
      <trkpt lat="45.39567" lon="4.65338">
        <ele>755</ele>
        <time>2019-08-13T11:38:15Z</time>
      </trkpt>
      <trkpt lat="45.39524" lon="4.65269">
        <ele>762</ele>
        <time>2019-08-13T11:39:42Z</time>
      </trkpt>
      <trkpt lat="45.39499" lon="4.65245">
        <ele>762</ele>
        <time>2019-08-13T11:40:22Z</time>
      </trkpt>
      <trkpt lat="45.39433" lon="4.65195">
        <ele>759</ele>
        <time>2019-08-13T11:42:02Z</time>
      </trkpt>
      <trkpt lat="45.39393" lon="4.65153">
        <ele>757</ele>
        <time>2019-08-13T11:43:08Z</time>
      </trkpt>
      <trkpt lat="45.39359" lon="4.65113">
        <ele>754</ele>
        <time>2019-08-13T11:44:07Z</time>
      </trkpt>
      <trkpt lat="45.39336" lon="4.65091">
        <ele>750</ele>
        <time>2019-08-13T11:44:44Z</time>
      </trkpt>
      <trkpt lat="45.39292" lon="4.65063">
        <ele>739</ele>
        <time>2019-08-13T11:45:48Z</time>
      </trkpt>
      <trkpt lat="45.39231" lon="4.64984">
        <ele>730</ele>
        <time>2019-08-13T11:47:38Z</time>
      </trkpt>
      <trkpt lat="45.39211" lon="4.64949">
        <ele>732</ele>
        <time>2019-08-13T11:48:21Z</time>
      </trkpt>
      <trkpt lat="45.39185" lon="4.64932">
        <ele>730</ele>
        <time>2019-08-13T11:48:59Z</time>
      </trkpt>
      <trkpt lat="45.39158" lon="4.64922">
        <ele>728</ele>
        <time>2019-08-13T11:49:36Z</time>
      </trkpt>
      <trkpt lat="45.39151" lon="4.6491">
        <ele>730</ele>
        <time>2019-08-13T11:49:51Z</time>
      </trkpt>
      <trkpt lat="45.39141" lon="4.64903">
        <ele>731</ele>
        <time>2019-08-13T11:50:06Z</time>
      </trkpt>
      <trkpt lat="45.39135" lon="4.64905">
        <ele>731</ele>
        <time>2019-08-13T11:50:14Z</time>
      </trkpt>
      <trkpt lat="45.39126" lon="4.64922">
        <ele>729</ele>
        <time>2019-08-13T11:50:34Z</time>
      </trkpt>
      <trkpt lat="45.39123" lon="4.64939">
        <ele>728</ele>
        <time>2019-08-13T11:50:50Z</time>
      </trkpt>
      <trkpt lat="45.39129" lon="4.65033">
        <ele>718</ele>
        <time>2019-08-13T11:52:19Z</time>
      </trkpt>
      <trkpt lat="45.39127" lon="4.65063">
        <ele>716</ele>
        <time>2019-08-13T11:52:47Z</time>
      </trkpt>
      <trkpt lat="45.39131" lon="4.65088">
        <ele>714</ele>
        <time>2019-08-13T11:53:11Z</time>
      </trkpt>
      <trkpt lat="45.39125" lon="4.65123">
        <ele>712</ele>
        <time>2019-08-13T11:53:45Z</time>
      </trkpt>
      <trkpt lat="45.39112" lon="4.65139">
        <ele>712</ele>
        <time>2019-08-13T11:54:08Z</time>
      </trkpt>
      <trkpt lat="45.39075" lon="4.65166">
        <ele>712</ele>
        <time>2019-08-13T11:55:03Z</time>
      </trkpt>
      <trkpt lat="45.3908" lon="4.65179">
        <ele>710</ele>
        <time>2019-08-13T11:55:17Z</time>
      </trkpt>
      <trkpt lat="45.39082" lon="4.6521">
        <ele>705</ele>
        <time>2019-08-13T11:55:46Z</time>
      </trkpt>
      <trkpt lat="45.39074" lon="4.65297">
        <ele>688</ele>
        <time>2019-08-13T11:57:08Z</time>
      </trkpt>
      <trkpt lat="45.39077" lon="4.65331">
        <ele>681</ele>
        <time>2019-08-13T11:57:41Z</time>
      </trkpt>
      <trkpt lat="45.39086" lon="4.65367">
        <ele>675</ele>
        <time>2019-08-13T11:58:16Z</time>
      </trkpt>
      <trkpt lat="45.39065" lon="4.65385">
        <ele>671</ele>
        <time>2019-08-13T11:58:49Z</time>
      </trkpt>
      <trkpt lat="45.39125" lon="4.65549">
        <ele>654</ele>
        <time>2019-08-13T12:01:42Z</time>
      </trkpt>
      <trkpt lat="45.39143" lon="4.65622">
        <ele>652</ele>
        <time>2019-08-13T12:02:55Z</time>
      </trkpt>
      <trkpt lat="45.39162" lon="4.65637">
        <ele>651</ele>
        <time>2019-08-13T12:03:24Z</time>
      </trkpt>
      <trkpt lat="45.39177" lon="4.65655">
        <ele>648</ele>
        <time>2019-08-13T12:03:50Z</time>
      </trkpt>
      <trkpt lat="45.39239" lon="4.65767">
        <ele>633</ele>
        <time>2019-08-13T12:06:04Z</time>
      </trkpt>
      <trkpt lat="45.39264" lon="4.65789">
        <ele>629</ele>
        <time>2019-08-13T12:06:43Z</time>
      </trkpt>
      <trkpt lat="45.39276" lon="4.65817">
        <ele>627</ele>
        <time>2019-08-13T12:07:14Z</time>
      </trkpt>
      <trkpt lat="45.39293" lon="4.65839">
        <ele>624</ele>
        <time>2019-08-13T12:07:44Z</time>
      </trkpt>
      <trkpt lat="45.39323" lon="4.65886">
        <ele>618</ele>
        <time>2019-08-13T12:08:44Z</time>
      </trkpt>
      <trkpt lat="45.39346" lon="4.65946">
        <ele>613</ele>
        <time>2019-08-13T12:09:48Z</time>
      </trkpt>
      <trkpt lat="45.39356" lon="4.65996">
        <ele>609</ele>
        <time>2019-08-13T12:10:37Z</time>
      </trkpt>
      <trkpt lat="45.3937" lon="4.66046">
        <ele>604</ele>
        <time>2019-08-13T12:11:27Z</time>
      </trkpt>
      <trkpt lat="45.3938" lon="4.66035">
        <ele>603</ele>
        <time>2019-08-13T12:11:44Z</time>
      </trkpt>
      <trkpt lat="45.39393" lon="4.66032">
        <ele>601</ele>
        <time>2019-08-13T12:12:01Z</time>
      </trkpt>
      <trkpt lat="45.39416" lon="4.66037">
        <ele>596</ele>
        <time>2019-08-13T12:12:32Z</time>
      </trkpt>
      <trkpt lat="45.39435" lon="4.66049">
        <ele>597</ele>
        <time>2019-08-13T12:13:00Z</time>
      </trkpt>
      <trkpt lat="45.39443" lon="4.66062">
        <ele>596</ele>
        <time>2019-08-13T12:13:16Z</time>
      </trkpt>
      <trkpt lat="45.39451" lon="4.66087">
        <ele>595</ele>
        <time>2019-08-13T12:13:42Z</time>
      </trkpt>
      <trkpt lat="45.39467" lon="4.66172">
        <ele>590</ele>
        <time>2019-08-13T12:15:05Z</time>
      </trkpt>
      <trkpt lat="45.39477" lon="4.66213">
        <ele>587</ele>
        <time>2019-08-13T12:15:45Z</time>
      </trkpt>
      <trkpt lat="45.39486" lon="4.66232">
        <ele>586</ele>
        <time>2019-08-13T12:16:07Z</time>
      </trkpt>
      <trkpt lat="45.39505" lon="4.66253">
        <ele>586</ele>
        <time>2019-08-13T12:16:39Z</time>
      </trkpt>
      <trkpt lat="45.39502" lon="4.66305">
        <ele>579</ele>
        <time>2019-08-13T12:17:28Z</time>
      </trkpt>
      <trkpt lat="45.39504" lon="4.6632">
        <ele>577</ele>
        <time>2019-08-13T12:17:42Z</time>
      </trkpt>
      <trkpt lat="45.39517" lon="4.66336">
        <ele>575</ele>
        <time>2019-08-13T12:18:05Z</time>
      </trkpt>
      <trkpt lat="45.39528" lon="4.66345">
        <ele>575</ele>
        <time>2019-08-13T12:18:22Z</time>
      </trkpt>
      <trkpt lat="45.39565" lon="4.66353">
        <ele>575</ele>
        <time>2019-08-13T12:19:12Z</time>
      </trkpt>
      <trkpt lat="45.39568" lon="4.6635">
        <ele>576</ele>
        <time>2019-08-13T12:19:17Z</time>
      </trkpt>
      <trkpt lat="45.39587" lon="4.66403">
        <ele>571</ele>
        <time>2019-08-13T12:20:13Z</time>
      </trkpt>
      <trkpt lat="45.39602" lon="4.66435">
        <ele>572</ele>
        <time>2019-08-13T12:20:49Z</time>
      </trkpt>
      <trkpt lat="45.39606" lon="4.6645">
        <ele>571</ele>
        <time>2019-08-13T12:21:04Z</time>
      </trkpt>
      <trkpt lat="45.39607" lon="4.66492">
        <ele>568</ele>
        <time>2019-08-13T12:21:43Z</time>
      </trkpt>
      <trkpt lat="45.39602" lon="4.66515">
        <ele>566</ele>
        <time>2019-08-13T12:22:06Z</time>
      </trkpt>
      <trkpt lat="45.39588" lon="4.66555">
        <ele>562</ele>
        <time>2019-08-13T12:22:47Z</time>
      </trkpt>
      <trkpt lat="45.39546" lon="4.66637">
        <ele>552</ele>
        <time>2019-08-13T12:24:23Z</time>
      </trkpt>
      <trkpt lat="45.39544" lon="4.66646">
        <ele>551</ele>
        <time>2019-08-13T12:24:31Z</time>
      </trkpt>
      <trkpt lat="45.39543" lon="4.66698">
        <ele>547</ele>
        <time>2019-08-13T12:25:20Z</time>
      </trkpt>
      <trkpt lat="45.39531" lon="4.66768">
        <ele>540</ele>
        <time>2019-08-13T12:26:28Z</time>
      </trkpt>
      <trkpt lat="45.39533" lon="4.66778">
        <ele>540</ele>
        <time>2019-08-13T12:26:37Z</time>
      </trkpt>
      <trkpt lat="45.39564" lon="4.66836">
        <ele>538</ele>
        <time>2019-08-13T12:27:46Z</time>
      </trkpt>
      <trkpt lat="45.39588" lon="4.66872">
        <ele>538</ele>
        <time>2019-08-13T12:28:32Z</time>
      </trkpt>
      <trkpt lat="45.39589" lon="4.66887">
        <ele>537</ele>
        <time>2019-08-13T12:28:46Z</time>
      </trkpt>
      <trkpt lat="45.39583" lon="4.66913">
        <ele>534</ele>
        <time>2019-08-13T12:29:12Z</time>
      </trkpt>
      <trkpt lat="45.39585" lon="4.6692">
        <ele>534</ele>
        <time>2019-08-13T12:29:19Z</time>
      </trkpt>
      <trkpt lat="45.39604" lon="4.66951">
        <ele>535</ele>
        <time>2019-08-13T12:29:58Z</time>
      </trkpt>
      <trkpt lat="45.39609" lon="4.66975">
        <ele>535</ele>
        <time>2019-08-13T12:30:21Z</time>
      </trkpt>
      <trkpt lat="45.39604" lon="4.67128">
        <ele>527</ele>
        <time>2019-08-13T12:32:45Z</time>
      </trkpt>
      <trkpt lat="45.39598" lon="4.67158">
        <ele>525</ele>
        <time>2019-08-13T12:33:14Z</time>
      </trkpt>
      <trkpt lat="45.39592" lon="4.67171">
        <ele>523</ele>
        <time>2019-08-13T12:33:28Z</time>
      </trkpt>
      <trkpt lat="45.39585" lon="4.67183">
        <ele>522</ele>
        <time>2019-08-13T12:33:43Z</time>
      </trkpt>
      <trkpt lat="45.39563" lon="4.67206">
        <ele>518</ele>
        <time>2019-08-13T12:34:19Z</time>
      </trkpt>
      <trkpt lat="45.39561" lon="4.67217">
        <ele>517</ele>
        <time>2019-08-13T12:34:30Z</time>
      </trkpt>
      <trkpt lat="45.3958" lon="4.67247">
        <ele>519</ele>
        <time>2019-08-13T12:35:08Z</time>
      </trkpt>
      <trkpt lat="45.3959" lon="4.67258">
        <ele>520</ele>
        <time>2019-08-13T12:35:25Z</time>
      </trkpt>
      <trkpt lat="45.39613" lon="4.67273">
        <ele>522</ele>
        <time>2019-08-13T12:35:59Z</time>
      </trkpt>
      <trkpt lat="45.39647" lon="4.67285">
        <ele>527</ele>
        <time>2019-08-13T12:36:45Z</time>
      </trkpt>
      <trkpt lat="45.39676" lon="4.6731">
        <ele>530</ele>
        <time>2019-08-13T12:37:31Z</time>
      </trkpt>
      <trkpt lat="45.39697" lon="4.67338">
        <ele>533</ele>
        <time>2019-08-13T12:38:09Z</time>
      </trkpt>
      <trkpt lat="45.39715" lon="4.67355">
        <ele>535</ele>
        <time>2019-08-13T12:38:38Z</time>
      </trkpt>
      <trkpt lat="45.39767" lon="4.67427">
        <ele>540</ele>
        <time>2019-08-13T12:40:15Z</time>
      </trkpt>
      <trkpt lat="45.39831" lon="4.67524">
        <ele>541</ele>
        <time>2019-08-13T12:42:19Z</time>
      </trkpt>
      <trkpt lat="45.39852" lon="4.67552">
        <ele>540</ele>
        <time>2019-08-13T12:42:58Z</time>
      </trkpt>
      <trkpt lat="45.39875" lon="4.67602">
        <ele>536</ele>
        <time>2019-08-13T12:43:54Z</time>
      </trkpt>
      <trkpt lat="45.39919" lon="4.67657">
        <ele>533</ele>
        <time>2019-08-13T12:45:12Z</time>
      </trkpt>
      <trkpt lat="45.39932" lon="4.67723">
        <ele>524</ele>
        <time>2019-08-13T12:46:16Z</time>
      </trkpt>
      <trkpt lat="45.39934" lon="4.6776">
        <ele>519</ele>
        <time>2019-08-13T12:46:51Z</time>
      </trkpt>
      <trkpt lat="45.39938" lon="4.6778">
        <ele>517</ele>
        <time>2019-08-13T12:47:10Z</time>
      </trkpt>
      <trkpt lat="45.39958" lon="4.67834">
        <ele>510</ele>
        <time>2019-08-13T12:48:07Z</time>
      </trkpt>
      <trkpt lat="45.39974" lon="4.67892">
        <ele>502</ele>
        <time>2019-08-13T12:49:06Z</time>
      </trkpt>
      <trkpt lat="45.40029" lon="4.67993">
        <ele>488</ele>
        <time>2019-08-13T12:51:06Z</time>
      </trkpt>
      <trkpt lat="45.40064" lon="4.68064">
        <ele>479</ele>
        <time>2019-08-13T12:52:27Z</time>
      </trkpt>
      <trkpt lat="45.40072" lon="4.68093">
        <ele>476</ele>
        <time>2019-08-13T12:52:56Z</time>
      </trkpt>
      <trkpt lat="45.40082" lon="4.68115">
        <ele>473</ele>
        <time>2019-08-13T12:53:21Z</time>
      </trkpt>
      <trkpt lat="45.4009" lon="4.68142">
        <ele>470</ele>
        <time>2019-08-13T12:53:48Z</time>
      </trkpt>
      <trkpt lat="45.40112" lon="4.68189">
        <ele>464</ele>
        <time>2019-08-13T12:54:41Z</time>
      </trkpt>
      <trkpt lat="45.4012" lon="4.6819">
        <ele>463</ele>
        <time>2019-08-13T12:54:52Z</time>
      </trkpt>
      <trkpt lat="45.40138" lon="4.68229">
        <ele>459</ele>
        <time>2019-08-13T12:55:36Z</time>
      </trkpt>
      <trkpt lat="45.4015" lon="4.68249">
        <ele>456</ele>
        <time>2019-08-13T12:56:00Z</time>
      </trkpt>
      <trkpt lat="45.40271" lon="4.68079">
        <ele>457</ele>
        <time>2019-08-13T12:59:47Z</time>
      </trkpt>
      <trkpt lat="45.40292" lon="4.68054">
        <ele>459</ele>
        <time>2019-08-13T13:00:23Z</time>
      </trkpt>
      <trkpt lat="45.40328" lon="4.68023">
        <ele>461</ele>
        <time>2019-08-13T13:01:20Z</time>
      </trkpt>
      <trkpt lat="45.40365" lon="4.68005">
        <ele>461</ele>
        <time>2019-08-13T13:02:12Z</time>
      </trkpt>
      <trkpt lat="45.40417" lon="4.6799">
        <ele>462</ele>
        <time>2019-08-13T13:03:23Z</time>
      </trkpt>
      <trkpt lat="45.40448" lon="4.67989">
        <ele>462</ele>
        <time>2019-08-13T13:04:04Z</time>
      </trkpt>
      <trkpt lat="45.40533" lon="4.68026">
        <ele>460</ele>
        <time>2019-08-13T13:06:03Z</time>
      </trkpt>
      <trkpt lat="45.40577" lon="4.68039">
        <ele>460</ele>
        <time>2019-08-13T13:07:03Z</time>
      </trkpt>
      <trkpt lat="45.40601" lon="4.68052">
        <ele>459</ele>
        <time>2019-08-13T13:07:37Z</time>
      </trkpt>
      <trkpt lat="45.40631" lon="4.68079">
        <ele>455</ele>
        <time>2019-08-13T13:08:24Z</time>
      </trkpt>
      <trkpt lat="45.40677" lon="4.68114">
        <ele>448</ele>
        <time>2019-08-13T13:09:34Z</time>
      </trkpt>
      <trkpt lat="45.40681" lon="4.68108">
        <ele>449</ele>
        <time>2019-08-13T13:09:42Z</time>
      </trkpt>
      <trkpt lat="45.40703" lon="4.68098">
        <ele>448</ele>
        <time>2019-08-13T13:10:12Z</time>
      </trkpt>
      <trkpt lat="45.40724" lon="4.68094">
        <ele>447</ele>
        <time>2019-08-13T13:10:41Z</time>
      </trkpt>
      <trkpt lat="45.40821" lon="4.68094">
        <ele>447</ele>
        <time>2019-08-13T13:12:50Z</time>
      </trkpt>
      <trkpt lat="45.40917" lon="4.68081">
        <ele>450</ele>
        <time>2019-08-13T13:14:59Z</time>
      </trkpt>
      <trkpt lat="45.40967" lon="4.68071">
        <ele>451</ele>
        <time>2019-08-13T13:16:06Z</time>
      </trkpt>
      <trkpt lat="45.40931" lon="4.68256">
        <ele>436</ele>
        <time>2019-08-13T13:19:06Z</time>
      </trkpt>
      <trkpt lat="45.41037" lon="4.68286">
        <ele>442</ele>
        <time>2019-08-13T13:21:30Z</time>
      </trkpt>
      <trkpt lat="45.41083" lon="4.68296">
        <ele>445</ele>
        <time>2019-08-13T13:22:32Z</time>
      </trkpt>
      <trkpt lat="45.41123" lon="4.68291">
        <ele>447</ele>
        <time>2019-08-13T13:23:26Z</time>
      </trkpt>
      <trkpt lat="45.41149" lon="4.68281">
        <ele>449</ele>
        <time>2019-08-13T13:24:02Z</time>
      </trkpt>
      <trkpt lat="45.41188" lon="4.68257">
        <ele>448</ele>
        <time>2019-08-13T13:24:59Z</time>
      </trkpt>
      <trkpt lat="45.4123" lon="4.68203">
        <ele>444</ele>
        <time>2019-08-13T13:26:14Z</time>
      </trkpt>
      <trkpt lat="45.41248" lon="4.6817">
        <ele>442</ele>
        <time>2019-08-13T13:26:53Z</time>
      </trkpt>
      <trkpt lat="45.41266" lon="4.68112">
        <ele>440</ele>
        <time>2019-08-13T13:27:53Z</time>
      </trkpt>
      <trkpt lat="45.41275" lon="4.68048">
        <ele>438</ele>
        <time>2019-08-13T13:28:54Z</time>
      </trkpt>
      <trkpt lat="45.41281" lon="4.6798">
        <ele>435</ele>
        <time>2019-08-13T13:29:58Z</time>
      </trkpt>
      <trkpt lat="45.41293" lon="4.67927">
        <ele>432</ele>
        <time>2019-08-13T13:30:50Z</time>
      </trkpt>
      <trkpt lat="45.41308" lon="4.67891">
        <ele>429</ele>
        <time>2019-08-13T13:31:29Z</time>
      </trkpt>
      <trkpt lat="45.41333" lon="4.67861">
        <ele>423</ele>
        <time>2019-08-13T13:32:13Z</time>
      </trkpt>
      <trkpt lat="45.4135" lon="4.67846">
        <ele>423</ele>
        <time>2019-08-13T13:32:40Z</time>
      </trkpt>
      <trkpt lat="45.41368" lon="4.67835">
        <ele>424</ele>
        <time>2019-08-13T13:33:06Z</time>
      </trkpt>
      <trkpt lat="45.41393" lon="4.67827">
        <ele>425</ele>
        <time>2019-08-13T13:33:40Z</time>
      </trkpt>
      <trkpt lat="45.41409" lon="4.67825">
        <ele>425</ele>
        <time>2019-08-13T13:34:01Z</time>
      </trkpt>
      <trkpt lat="45.41439" lon="4.67828">
        <ele>426</ele>
        <time>2019-08-13T13:34:42Z</time>
      </trkpt>
      <trkpt lat="45.41464" lon="4.67836">
        <ele>426</ele>
        <time>2019-08-13T13:35:16Z</time>
      </trkpt>
      <trkpt lat="45.41478" lon="4.67838">
        <ele>426</ele>
        <time>2019-08-13T13:35:34Z</time>
      </trkpt>
      <trkpt lat="45.41541" lon="4.6786">
        <ele>417</ele>
        <time>2019-08-13T13:37:01Z</time>
      </trkpt>
      <trkpt lat="45.41668" lon="4.67896">
        <ele>428</ele>
        <time>2019-08-13T13:39:54Z</time>
      </trkpt>
      <trkpt lat="45.41686" lon="4.679">
        <ele>431</ele>
        <time>2019-08-13T13:40:18Z</time>
      </trkpt>
      <trkpt lat="45.41697" lon="4.67898">
        <ele>432</ele>
        <time>2019-08-13T13:40:33Z</time>
      </trkpt>
      <trkpt lat="45.41715" lon="4.67908">
        <ele>434</ele>
        <time>2019-08-13T13:40:59Z</time>
      </trkpt>
      <trkpt lat="45.41755" lon="4.67921">
        <ele>438</ele>
        <time>2019-08-13T13:41:53Z</time>
      </trkpt>
      <trkpt lat="45.41763" lon="4.67837">
        <ele>443</ele>
        <time>2019-08-13T13:43:13Z</time>
      </trkpt>
      <trkpt lat="45.41755" lon="4.67711">
        <ele>454</ele>
        <time>2019-08-13T13:45:11Z</time>
      </trkpt>
      <trkpt lat="45.41807" lon="4.67707">
        <ele>451</ele>
        <time>2019-08-13T13:46:21Z</time>
      </trkpt>
      <trkpt lat="45.4187" lon="4.67623">
        <ele>452</ele>
        <time>2019-08-13T13:48:16Z</time>
      </trkpt>
      <trkpt lat="45.41876" lon="4.67612">
        <ele>452</ele>
        <time>2019-08-13T13:48:29Z</time>
      </trkpt>
    </trkseg>
  </trk>
</gpx>